Torrington, WY

3:13 PM MDT on August 23, 2016 (GMT -0600)
Torrington Municipal | | Change Station
Active Advisory: Fire Weather Warning

Elev 4206 ft 42.06 °N, 104.15 °W | Updated 20 minutes ago

Clear
Clear
85 °F
Feels Like 85 °F
N
8
Wind Variable Wind from North

Today
High -- | Low -- °F
--% Chance of Precip.
Yesterday
High -- | Low -- °F
Precip. -- in
Pressure 29.84 in
Visibility 10.0 miles
Clouds Clear
Dew Point 19 °F
Humidity 9%
Rainfall 0.00 in
Snow Depth Not available.
6:13 AM 7:44 PM
Waning Gibbous, 64% visible
METAR KTOR 232053Z AUTO 35007KT 10SM CLR 29/M07 A2998 RMK AO2 SLP104 T02941072 53000 TSNO
Pressure 29.84 in
Visibility 10.0 miles
Clouds Clear
Dew Point 19 °F
Humidity 9%
Rainfall 0.00 in
Snow Depth Not available.
6:13 AM 7:44 PM
Waning Gibbous, 64% visible
METAR KTOR 232053Z AUTO 35007KT 10SM CLR 29/M07 A2998 RMK AO2 SLP104 T02941072 53000 TSNO

10-Day Weather Forecast

Almanac

Astronomy

Aug. 23, 2016 Rise Set
Actual Time
Civil Twilight
Nautical Twilight
Astronomical Twilight
Moon
Length of Visible Light
Length of Day
Tomorrow will be .
, % of the Moon is Illuminated

Today's Extremes

State Highs State Lows

Community

WunderPhotos

Upload Photos

1,934,456 photos uploaded!

WunderBlog® & News

Nearby

Air Quality

  Air Quality AQ Index Pollutant
Not available.

Snow Depth

Station Depth Elevation

Earthquake Activity

City Distance Mag. Time & Date
Minimum magnitude displayed is 2.5.

Coastal Water Temperatures

Place Temperature

Stations

Nearby Weather Stations

Station Location Temp. Windchill Dew Point Humidity Wind Precip. Elev Updated Type
                   

Watches & Warnings

Fire Weather Warning
Issued: 3:08 PM MDT Aug. 23, 2016 – National Weather Service

... Red flag warning remains in effect until 8 PM MDT this evening
for gusty winds and low humidities for fire weather zones
302... 303... 304... 306... 308... 309 and 310...

* affected area... fire weather zone 302. Fire weather zone 303.
Fire weather zone 304. Fire weather zone 306. Fire weather
zone 308. Fire weather zone 309. Fire weather zone 310.

* Wind... sustained southwest 15 to 20 mph with gusts 25 to 35
mph.

* Humidity... minimum 8 to 15 percent.

* Impacts... the combination of warm temperatures and gusty
winds will create conditions favorable for rapid fire spread.
Outdoor burning is not recommended.

Precautionary/preparedness actions...

A red flag warning means that critical fire weather conditions
are either occurring now... .or will shortly. A combination of
strong winds... low relative humidity... and warm temperatures can
contribute to extreme fire behavior.